Time;durP1;ratioP1;P1;durP2;ratioP2;P2;SDS_P1;SDS_P2;PMS_P1;PMS_P2;Temp;Humidity;BMP_temperature;BMP_pressure;BME280_temperature;BME280_humidity;BME280_pressure;Samples;Min_cycle;Max_cycle;Signal;HPM_P1;HPM_P2
2021/05/29 00:01:15;;;;;;;6.00;5.27;;;;;;;14.69;76.78;95025.72;5060039;28;20447;-80
2021/05/29 00:03:42;;;;;;;4.50;4.20;;;;;;;14.75;76.24;95014.59;5094957;28;20448;-80
2021/05/29 00:06:09;;;;;;;5.00;4.50;;;;;;;14.74;76.55;95012.91;5059978;28;20509;-80
2021/05/29 00:08:35;;;;;;;4.53;4.23;;;;;;;14.72;76.52;95019.31;5095189;28;20436;-80
2021/05/29 00:11:03;;;;;;;4.93;4.03;;;;;;;14.74;76.43;95014.69;5060103;28;20436;-80
2021/05/29 00:13:31;;;;;;;4.50;4.10;;;;;;;14.79;76.03;95007.19;5059942;28;20478;-80
2021/05/29 00:15:58;;;;;;;4.73;4.43;;;;;;;14.76;76.69;95007.50;5076274;28;20481;-80
2021/05/29 00:18:25;;;;;;;4.40;4.00;;;;;;;14.72;75.82;95012.22;5094806;28;20439;-80
2021/05/29 00:20:52;;;;;;;5.30;4.80;;;;;;;14.71;76.34;95018.47;5094877;28;20482;-80
2021/05/29 00:23:19;;;;;;;4.83;4.37;;;;;;;14.68;75.66;95005.59;5094911;28;20444;-80
2021/05/29 00:25:46;;;;;;;4.30;4.00;;;;;;;14.70;76.08;95006.25;5094709;28;20444;-80
2021/05/29 00:28:14;;;;;;;5.10;4.70;;;;;;;14.75;75.63;95011.94;5095254;28;20424;-80
2021/05/29 00:30:42;;;;;;;4.43;4.13;;;;;;;14.75;75.68;94998.72;5094543;28;20471;-81
2021/05/29 00:33:09;;;;;;;5.53;4.93;;;;;;;14.76;75.03;95002.22;5095097;28;20463;-80
2021/05/29 00:35:35;;;;;;;4.93;4.53;;;;;;;14.66;75.69;95004.09;5094812;28;20461;-80
2021/05/29 00:38:03;;;;;;;5.90;5.30;;;;;;;14.59;75.54;95006.50;5059156;28;20963;-80
2021/05/29 00:40:29;;;;;;;5.23;4.83;;;;;;;14.55;75.81;94997.22;5094757;28;20495;-80
2021/05/29 00:42:56;;;;;;;5.70;4.77;;;;;;;14.57;75.18;95003.19;5094517;28;20471;-80
2021/05/29 00:45:23;;;;;;;10.57;5.33;;;;;;;14.57;75.77;94993.44;5094229;28;20819;-80
2021/05/29 00:47:50;;;;;;;5.50;5.10;;;;;;;14.48;75.42;94996.19;5094528;28;20516;-80
2021/05/29 00:50:18;;;;;;;5.10;4.70;;;;;;;14.48;75.38;94988.25;5094486;28;20440;-80
2021/05/29 00:52:46;;;;;;;6.97;5.10;;;;;;;14.46;75.81;94991.06;5094319;28;20484;-80
2021/05/29 00:55:15;;;;;;;5.97;5.47;;;;;;;14.46;76.11;94998.16;5094181;28;20443;-80
2021/05/29 00:57:43;;;;;;;5.87;5.30;;;;;;;14.45;76.13;94991.19;5094442;28;20436;-80
2021/05/29 01:00:11;;;;;;;6.03;4.77;;;;;;;14.49;75.75;94987.28;5094322;28;20436;-80
2021/05/29 01:02:39;;;;;;;5.40;4.90;;;;;;;14.40;76.50;94969.66;5093987;28;20978;-80
2021/05/29 01:05:09;;;;;;;5.30;4.90;;;;;;;14.38;76.03;94983.00;5094379;28;20792;-80
2021/05/29 01:07:36;;;;;;;7.70;5.17;;;;;;;14.33;76.32;94982.63;5059312;28;20956;-80
2021/05/29 01:10:04;;;;;;;5.00;4.70;;;;;;;14.34;76.42;94986.94;5093778;28;20811;-80
2021/05/29 01:12:31;;;;;;;4.60;4.27;;;;;;;14.26;76.27;94979.78;5093660;28;20967;-80
2021/05/29 01:14:58;;;;;;;5.10;4.70;;;;;;;14.25;76.52;94980.75;5094041;28;20805;-80
2021/05/29 01:17:27;;;;;;;5.97;5.47;;;;;;;14.24;76.91;94981.72;5093786;28;20452;-80
2021/05/29 01:19:55;;;;;;;5.40;5.00;;;;;;;14.30;80.29;94974.19;5093745;28;20445;-80
2021/05/29 01:22:40;;;;;;;5.77;4.97;;;;;;;14.18;77.49;94974.41;5094037;28;20428;-80
2021/05/29 01:25:17;;;;;;;5.60;5.10;;;;;;;14.21;76.83;94975.94;5093823;28;20441;-80
2021/05/29 01:27:44;;;;;;;6.50;5.33;;;;;;;14.14;77.15;94969.56;5093803;28;20447;-80
2021/05/29 01:30:12;;;;;;;5.40;4.90;;;;;;;14.13;76.89;94968.75;5093574;28;21196;-80
2021/05/29 01:32:39;;;;;;;5.83;5.30;;;;;;;14.15;77.33;94974.69;5093678;28;20519;-80
2021/05/29 01:35:09;;;;;;;7.83;5.10;;;;;;;14.13;77.23;94979.28;5093509;28;20795;-80
2021/05/29 01:37:37;;;;;;;5.23;4.70;;;;;;;14.15;77.21;94961.50;5093421;28;20819;-80
2021/05/29 01:40:07;;;;;;;5.40;5.00;;;;;;;14.14;79.14;94970.41;5093793;28;20492;-81
2021/05/29 01:42:36;;;;;;;6.30;5.70;;;;;;;14.11;76.82;94969.88;5093380;28;20474;-80
2021/05/29 01:45:05;;;;;;;5.13;4.67;;;;;;;14.09;76.80;94962.09;5093590;28;20441;-80
2021/05/29 01:47:34;;;;;;;4.83;4.53;;;;;;;14.07;77.08;94974.63;5093596;28;20522;-80
2021/05/29 01:50:00;;;;;;;8.30;6.20;;;;;;;14.09;76.97;94970.03;5093561;28;20514;-80
2021/05/29 01:52:49;;;;;;;5.73;5.23;;;;;;;14.08;77.49;94971.00;5093531;28;20470;-81
2021/05/29 01:55:19;;;;;;;6.03;5.47;;;;;;;14.10;76.83;94968.22;5093248;28;20497;-80
2021/05/29 01:57:46;;;;;;;8.10;5.00;;;;;;;14.06;76.91;94964.22;5093113;28;20935;-80
2021/05/29 02:00:14;;;;;;;5.90;5.33;;;;;;;14.03;77.09;94965.34;5093483;28;20435;-80
2021/05/29 02:02:40;;;;;;;7.20;5.07;;;;;;;14.02;76.99;94963.69;5025307;28;20531;-80
2021/05/29 02:05:16;;;;;;;5.23;4.83;;;;;;;14.06;77.25;94967.69;5093241;28;20488;-80
2021/05/29 02:07:43;;;;;;;8.00;4.93;;;;;;;13.99;76.97;94961.34;5058040;28;20443;-80
2021/05/29 02:10:12;;;;;;;6.03;5.50;;;;;;;13.97;77.70;94959.84;5093160;28;20885;-81
2021/05/29 02:12:42;;;;;;;5.33;4.83;;;;;;;13.98;77.52;94972.06;5093266;28;20483;-80
2021/05/29 02:15:10;;;;;;;5.57;5.17;;;;;;;13.98;77.47;94979.97;5093035;28;20448;-80
2021/05/29 02:17:37;;;;;;;8.20;5.03;;;;;;;13.98;77.30;94969.41;5093088;28;20466;-80
2021/05/29 02:20:05;;;;;;;6.23;4.33;;;;;;;13.99;77.51;94971.91;5093025;28;20475;-80
2021/05/29 02:22:32;;;;;;;5.57;4.97;;;;;;;14.01;78.24;94980.50;5092895;28;20474;-80
2021/05/29 02:24:59;;;;;;;4.77;4.37;;;;;;;14.01;77.34;94977.03;5092855;28;20454;-80
2021/05/29 02:27:25;;;;;;;7.27;5.93;;;;;;;14.00;77.42;94973.56;5092982;28;20435;-80
2021/05/29 02:29:53;;;;;;;5.80;5.30;;;;;;;14.00;77.19;94976.19;5093178;28;20474;-80
2021/05/29 02:32:19;;;;;;;4.73;4.33;;;;;;;14.01;77.11;94980.50;5093600;28;20490;-80
2021/05/29 02:34:46;;;;;;;5.10;4.70;;;;;;;13.95;77.28;94981.09;5093093;28;20446;-80
2021/05/29 02:37:12;;;;;;;5.03;4.53;;;;;;;13.97;77.39;94968.59;5092972;28;20865;-80
2021/05/29 02:39:39;;;;;;;4.77;4.47;;;;;;;14.00;76.96;94978.00;5092902;28;20501;-80
2021/05/29 02:42:06;;;;;;;5.97;5.47;;;;;;;14.02;76.85;94976.88;5057710;28;20450;-80
2021/05/29 02:44:33;;;;;;;4.83;4.43;;;;;;;14.03;76.82;94981.19;5057669;28;20444;-80
2021/05/29 02:47:00;;;;;;;4.50;4.20;;;;;;;14.05;76.93;94979.22;5092723;28;20447;-80
2021/05/29 02:49:27;;;;;;;8.00;5.03;;;;;;;13.99;76.48;94981.63;5092703;28;20440;-80
2021/05/29 02:51:53;;;;;;;5.63;5.17;;;;;;;13.96;77.06;94982.75;5092821;28;20476;-80
2021/05/29 02:54:22;;;;;;;4.50;4.17;;;;;;;13.93;76.67;94983.88;5057778;28;20443;-80
2021/05/29 02:56:48;;;;;;;14.97;4.30;;;;;;;13.91;76.62;94980.56;5092942;28;20514;-80
2021/05/29 02:59:15;;;;;;;5.00;4.60;;;;;;;13.94;76.79;94976.81;5092805;28;20437;-80
2021/05/29 03:08:25;;;;;;;4.20;3.80;;;;;;;13.90;76.37;94986.00;5094794;28;20428;-79
2021/05/29 03:10:53;;;;;;;5.07;4.57;;;;;;;13.95;76.50;94975.81;5096114;28;20807;-80
2021/05/29 03:13:20;;;;;;;5.17;4.13;;;;;;;13.95;76.10;94971.38;5061192;28;20505;-80
2021/05/29 03:15:48;;;;;;;6.33;4.23;;;;;;;13.98;77.50;94980.78;5096333;28;20443;-80
2021/05/29 03:18:14;;;;;;;6.53;4.63;;;;;;;14.00;76.30;94981.47;5096396;28;20508;-80
2021/05/29 03:20:41;;;;;;;5.60;3.87;;;;;;;14.02;76.21;94986.59;5096371;28;20438;-80
2021/05/29 03:23:08;;;;;;;6.37;3.63;;;;;;;14.07;75.96;94984.34;5096210;28;20435;-80
2021/05/29 03:25:35;;;;;;;5.03;4.10;;;;;;;14.17;75.56;94993.03;5095883;28;20420;-80
2021/05/29 03:28:02;;;;;;;4.80;4.37;;;;;;;14.32;74.86;94999.44;5095967;28;20444;-80
2021/05/29 03:30:30;;;;;;;9.27;3.83;;;;;;;14.39;74.35;95002.31;5096102;28;20936;-80
2021/05/29 03:32:58;;;;;;;4.07;3.67;;;;;;;14.37;74.60;95001.63;5093871;28;20486;-80
2021/05/29 03:35:25;;;;;;;4.20;3.80;;;;;;;14.33;74.08;94995.00;5095996;28;20436;-80
2021/05/29 03:37:52;;;;;;;13.77;3.53;;;;;;;14.38;74.07;94998.00;5060510;28;20445;-80
2021/05/29 03:40:19;;;;;;;4.90;4.13;;;;;;;14.39;74.61;94999.69;5096253;28;20471;-80
2021/05/29 03:42:47;;;;;;;6.43;3.70;;;;;;;14.39;74.40;95002.31;5095730;28;20447;-80
2021/05/29 03:45:16;;;;;;;6.40;3.73;;;;;;;14.69;73.37;94991.41;5095495;28;20448;-81
2021/05/29 03:47:43;;;;;;;4.97;4.30;;;;;;;15.14;71.23;94999.19;5095431;28;20815;-81
2021/05/29 03:50:12;;;;;;;4.30;3.50;;;;;;;15.75;70.05;95003.50;5093731;28;20451;-81
2021/05/29 03:52:41;;;;;;;3.70;3.40;;;;;;;16.27;67.36;95007.84;5096451;28;20478;-79
2021/05/29 03:55:09;;;;;;;5.97;3.43;;;;;;;16.33;66.12;94999.22;5096166;28;20486;-79
2021/05/29 03:57:36;;;;;;;3.30;3.00;;;;;;;16.34;66.51;94995.59;5096125;28;20443;-79
2021/05/29 04:00:05;;;;;;;5.37;3.63;;;;;;;16.59;65.57;94999.94;5095162;28;20436;-79
2021/05/29 04:02:32;;;;;;;6.00;3.33;;;;;;;17.01;63.93;95004.28;5095313;28;20435;-79
2021/05/29 04:04:58;;;;;;;3.60;3.27;;;;;;;17.33;62.21;95008.72;5095129;28;20456;-79
2021/05/29 04:10:52;;;;;;;3.57;3.27;;;;;;;18.38;59.84;95018.16;5095093;28;20401;-79
2021/05/29 04:13:18;;;;;;;4.63;3.70;;;;;;;18.64;58.33;95017.06;5095160;28;20575;-79
2021/05/29 04:15:46;;;;;;;3.90;3.60;;;;;;;18.64;57.10;95015.22;5059852;28;20962;-80
2021/05/29 04:18:12;;;;;;;3.20;3.00;;;;;;;18.85;57.29;95017.25;5094886;28;20494;-80
2021/05/29 04:20:39;;;;;;;4.57;3.17;;;;;;;19.02;57.07;95013.44;5094870;28;20452;-80
2021/05/29 04:23:06;;;;;;;3.80;3.50;;;;;;;19.18;56.17;95018.63;5095362;28;20430;-80
2021/05/29 04:25:32;;;;;;;7.37;3.40;;;;;;;19.13;56.88;95005.06;5095051;28;20438;-81
2021/05/29 04:27:59;;;;;;;3.70;3.40;;;;;;;19.23;56.20;95007.44;5092826;28;21069;-80
2021/05/29 04:30:27;;;;;;;3.67;3.00;;;;;;;19.32;56.13;95013.50;5094529;28;20926;-81
2021/05/29 04:32:55;;;;;;;3.40;3.10;;;;;;;19.20;55.28;95005.16;5094555;28;20465;-79
2021/05/29 04:35:22;;;;;;;3.57;3.37;;;;;;;19.16;55.90;95010.00;5094821;28;20438;-80
2021/05/29 04:37:50;;;;;;;5.57;3.30;;;;;;;19.26;55.95;95003.59;5094725;28;20461;-80
2021/05/29 04:40:20;;;;;;;4.33;3.93;;;;;;;19.58;55.12;95003.31;5094870;28;20470;-80
2021/05/29 04:42:46;;;;;;;3.43;3.13;;;;;;;19.77;55.35;94996.63;5094631;28;20461;-79
2021/05/29 04:45:14;;;;;;;4.23;3.60;;;;;;;19.64;54.17;94999.91;5094605;28;20445;-81
2021/05/29 04:47:41;;;;;;;3.37;3.13;;;;;;;19.69;54.10;94988.75;5059335;28;20450;-79
2021/05/29 04:50:10;;;;;;;3.90;3.60;;;;;;;19.91;54.01;94994.94;5094298;28;20876;-79
2021/05/29 04:52:37;;;;;;;3.63;3.23;;;;;;;20.21;53.06;94988.56;5094438;28;20496;-79
2021/05/29 04:55:05;;;;;;;12.50;3.77;;;;;;;20.19;52.38;94990.59;5094473;28;20934;-79
2021/05/29 04:57:32;;;;;;;3.83;3.43;;;;;;;19.95;53.55;94989.09;5094203;28;20797;-79
2021/05/29 04:59:59;;;;;;;3.30;3.10;;;;;;;20.21;52.64;94983.25;5094035;28;20439;-79
2021/05/29 05:02:25;;;;;;;3.10;2.90;;;;;;;20.33;53.12;94995.09;5093957;28;20439;-79
2021/05/29 05:04:52;;;;;;;6.60;3.70;;;;;;;20.45;52.60;94989.28;5094241;28;21169;-79
2021/05/29 05:07:19;;;;;;;4.40;3.00;;;;;;;20.22;51.79;94992.06;5094007;28;20450;-79
2021/05/29 05:09:46;;;;;;;3.93;3.30;;;;;;;20.59;52.90;95005.25;5094157;28;20438;-79
2021/05/29 05:12:12;;;;;;;3.77;3.00;;;;;;;20.85;51.28;94996.72;5093988;28;20482;-79
2021/05/29 05:14:39;;;;;;;3.90;3.57;;;;;;;20.97;50.50;94999.69;5093900;28;20846;-79
2021/05/29 05:17:05;;;;;;;6.33;3.10;;;;;;;20.95;50.77;95007.06;5094186;28;20424;-80
2021/05/29 05:19:32;;;;;;;3.53;3.23;;;;;;;20.73;50.77;95004.38;5058607;28;20954;-80
2021/05/29 05:21:59;;;;;;;4.20;2.80;;;;;;;20.80;50.29;94999.09;5094039;28;20427;-81
2021/05/29 05:24:26;;;;;;;6.13;3.90;;;;;;;20.63;50.98;94995.03;5093513;28;20444;-81
2021/05/29 05:26:53;;;;;;;3.30;3.10;;;;;;;20.40;51.60;94998.69;5058432;28;20447;-82
2021/05/29 05:29:19;;;;;;;3.43;3.20;;;;;;;20.53;51.95;94992.69;5093365;28;20470;-80
2021/05/29 05:31:46;;;;;;;3.03;2.83;;;;;;;20.40;51.71;94997.88;5093325;28;20935;-79
2021/05/29 05:34:12;;;;;;;4.30;3.77;;;;;;;20.26;51.43;94999.53;5093464;28;20933;-81
2021/05/29 05:36:40;;;;;;;6.03;3.53;;;;;;;20.37;52.71;94996.38;5074745;28;20447;-80
2021/05/29 05:39:08;;;;;;;5.10;3.40;;;;;;;20.55;58.74;94989.84;5093543;28;20943;-80
2021/05/29 05:41:36;;;;;;;3.30;3.10;;;;;;;20.86;53.83;94998.38;5093909;28;20464;-81
2021/05/29 05:44:03;;;;;;;4.60;3.40;;;;;;;20.97;51.42;94986.34;5093483;28;20935;-81
2021/05/29 05:46:30;;;;;;;2.90;2.70;;;;;;;20.99;50.76;94982.47;5093397;28;20436;-81
2021/05/29 05:48:56;;;;;;;5.00;3.10;;;;;;;20.97;50.61;94989.84;5093665;28;20440;-81
2021/05/29 05:51:24;;;;;;;9.03;3.70;;;;;;;21.33;50.88;94999.59;5093684;28;20426;-80
2021/05/29 05:57:14;;;;;;;3.73;2.77;;;;;;;21.76;48.91;95000.34;5092393;28;20835;-81
2021/05/29 05:59:41;;;;;;;4.17;3.77;;;;;;;21.69;48.98;95001.34;5093286;28;20522;-79
2021/05/29 06:02:07;;;;;;;3.43;3.23;;;;;;;21.57;49.24;95001.84;5093429;28;20444;-83
2021/05/29 06:04:34;;;;;;;4.00;3.60;;;;;;;21.52;49.20;95003.47;5093024;28;20967;-82
2021/05/29 06:07:01;;;;;;;4.07;3.53;;;;;;;21.66;49.69;94994.50;5093495;28;20432;-81
2021/05/29 06:09:29;;;;;;;3.57;3.27;;;;;;;21.59;48.19;94996.31;5093783;28;20937;-82
2021/05/29 06:11:56;;;;;;;3.33;3.03;;;;;;;21.59;49.13;94998.97;5093969;28;20485;-83
2021/05/29 06:19:53;;;;;;;3.33;3.07;;;;;;;21.57;50.02;94999.19;5083269;28;20428;-83
2021/05/29 06:22:20;;;;;;;4.30;2.77;;;;;;;21.78;49.42;94987.59;5073241;28;20958;-82
2021/05/29 06:24:47;;;;;;;5.20;4.17;;;;;;;22.10;49.28;94994.19;5038629;28;20989;-83
2021/05/29 06:27:13;;;;;;;5.00;3.30;;;;;;;21.89;47.94;94996.91;5073263;28;20929;-83
2021/05/29 06:29:41;;;;;;;3.40;2.70;;;;;;;21.95;48.07;94988.09;5076608;28;20453;-81
2021/05/29 06:32:12;;;;;;;3.03;2.70;;;;;;;21.86;47.65;94984.78;5093285;28;20861;-84
2021/05/29 06:34:38;;;;;;;3.03;2.77;;;;;;;21.94;48.64;94981.09;5089122;28;20498;-84
2021/05/29 06:37:05;;;;;;;6.93;3.03;;;;;;;22.17;48.31;94980.84;5073451;28;20450;-82
2021/05/29 06:39:32;;;;;;;3.30;3.00;;;;;;;22.42;48.24;94975.81;5073066;28;20481;-83
2021/05/29 06:41:58;;;;;;;5.30;3.40;;;;;;;22.38;47.14;94979.91;5086139;28;20437;-80
2021/05/29 06:44:25;;;;;;;3.87;3.57;;;;;;;22.18;47.49;94972.63;5097610;28;20433;-83
2021/05/29 06:46:52;;;;;;;3.33;2.87;;;;;;;22.31;48.18;94965.69;5097476;28;20830;-82
2021/05/29 06:58:50;;;;;;;3.47;3.20;;;;;;;22.75;46.66;94960.66;5132452;28;20193;-81
2021/05/29 07:01:17;;;;;;;5.07;3.77;;;;;;;22.84;46.91;94972.88;5132150;28;20441;-84
2021/05/29 07:03:45;;;;;;;7.20;3.63;;;;;;;22.80;47.39;94976.91;5132329;28;20523;-82
2021/05/29 07:06:11;;;;;;;3.60;3.20;;;;;;;23.07;45.96;94964.44;5134206;28;20524;-87
2021/05/29 07:08:39;;;;;;;4.20;3.17;;;;;;;22.94;45.84;94958.25;5132919;28;20790;-84
2021/05/29 07:11:07;;;;;;;3.90;3.50;;;;;;;22.92;46.12;94965.66;5131855;28;20933;-82
2021/05/29 07:13:33;;;;;;;3.43;3.13;;;;;;;22.63;46.97;94962.28;5133976;28;20426;-85
2021/05/29 07:16:00;;;;;;;2.80;2.60;;;;;;;22.73;46.31;94953.88;5133203;28;21002;-85
2021/05/29 07:18:29;;;;;;;4.90;2.97;;;;;;;22.77;46.70;94963.94;5133492;28;20926;-84
2021/05/29 07:20:56;;;;;;;2.83;2.63;;;;;;;22.68;46.46;94965.19;5134779;28;20498;-84
2021/05/29 07:23:23;;;;;;;3.20;2.90;;;;;;;22.55;46.80;94955.28;5128003;28;20448;-85
2021/05/29 07:25:50;;;;;;;5.43;3.80;;;;;;;22.66;47.35;94963.72;5133011;28;20475;-84
2021/05/29 07:28:18;;;;;;;4.70;3.13;;;;;;;22.53;46.29;94959.97;5131675;28;20444;-82
2021/05/29 07:30:45;;;;;;;5.50;2.60;;;;;;;22.48;47.03;94951.75;5120914;28;20444;-83
2021/05/29 07:33:12;;;;;;;3.80;2.90;;;;;;;22.39;46.54;94949.47;5130119;28;20492;-83
2021/05/29 07:35:39;;;;;;;4.80;2.60;;;;;;;22.48;47.15;94946.41;5130731;28;20451;-84
2021/05/29 07:38:05;;;;;;;2.40;2.30;;;;;;;22.52;46.72;94954.84;5131274;28;20845;-86
2021/05/29 07:40:32;;;;;;;6.93;3.00;;;;;;;22.52;45.74;94941.47;5131136;28;20451;-83
2021/05/29 07:42:58;;;;;;;2.90;2.70;;;;;;;22.31;47.03;94942.47;5112687;28;20449;-84
2021/05/29 07:45:27;;;;;;;3.43;2.83;;;;;;;22.36;47.39;94941.84;5130553;28;20483;-82
2021/05/29 07:47:53;;;;;;;3.60;2.40;;;;;;;22.38;47.60;94945.16;5130777;28;20808;-84
2021/05/29 07:50:20;;;;;;;3.70;2.53;;;;;;;22.32;47.02;94938.75;5127028;28;20444;-81
2021/05/29 07:52:47;;;;;;;4.40;2.60;;;;;;;22.55;46.83;94946.41;5119163;28;20935;-83
2021/05/29 07:55:14;;;;;;;2.80;2.27;;;;;;;22.63;46.17;94934.72;5131245;28;20821;-82
2021/05/29 07:57:40;;;;;;;2.87;2.67;;;;;;;22.63;44.88;94940.88;5132213;28;20433;-81
2021/05/29 08:00:10;;;;;;;3.33;2.60;;;;;;;22.28;44.82;94937.50;5077517;28;20483;-85
2021/05/29 08:02:38;;;;;;;3.83;2.30;;;;;;;22.20;45.75;94932.31;5130732;28;20428;-84
2021/05/29 08:05:13;;;;;;;2.67;2.47;;;;;;;22.21;45.97;94929.44;5130179;28;20466;-81
2021/05/29 08:07:39;;;;;;;4.60;2.50;;;;;;;22.15;46.56;94924.09;5116202;28;20510;-88
2021/05/29 08:10:07;;;;;;;3.33;2.60;;;;;;;22.24;46.22;94929.03;5116669;28;21161;-83
2021/05/29 08:12:33;;;;;;;2.80;2.33;;;;;;;22.40;47.95;94932.41;5031319;28;20944;-82
2021/05/29 08:15:00;;;;;;;2.80;2.60;;;;;;;22.40;46.51;94927.03;5116609;28;20429;-83
2021/05/29 08:17:27;;;;;;;3.30;2.50;;;;;;;22.40;47.12;94933.22;5116398;28;20451;-83
2021/05/29 08:19:54;;;;;;;5.67;2.67;;;;;;;22.33;46.24;94926.22;5116641;28;20439;-83
2021/05/29 08:22:21;;;;;;;2.60;2.40;;;;;;;22.23;46.91;94921.22;5116571;28;20795;-83
2021/05/29 08:24:47;;;;;;;3.17;2.30;;;;;;;22.26;47.35;94920.81;5116444;28;21027;-83
2021/05/29 08:27:15;;;;;;;4.40;2.43;;;;;;;22.31;46.79;94926.41;5116307;28;20443;-84
2021/05/29 08:29:41;;;;;;;2.70;2.40;;;;;;;22.48;46.23;94921.50;5114776;28;20849;-85
2021/05/29 08:32:09;;;;;;;3.57;2.73;;;;;;;22.53;46.37;94925.22;5115019;28;20471;-83
2021/05/29 08:34:35;;;;;;;2.60;2.43;;;;;;;22.66;46.15;94916.41;5114893;28;20852;-84
2021/05/29 08:37:03;;;;;;;4.37;2.87;;;;;;;22.95;46.42;94914.41;5114679;28;20446;-85
2021/05/29 08:39:30;;;;;;;5.93;2.63;;;;;;;22.81;44.86;94909.03;5095649;28;20453;-84
2021/05/29 08:41:57;;;;;;;3.50;2.97;;;;;;;22.81;46.02;94902.84;5114602;28;20441;-83
2021/05/29 08:44:23;;;;;;;2.90;2.60;;;;;;;22.89;46.05;94909.88;5114789;28;20486;-84
2021/05/29 08:46:50;;;;;;;2.67;2.47;;;;;;;22.70;44.79;94914.97;5114844;28;20477;-85
2021/05/29 08:49:17;;;;;;;4.40;2.63;;;;;;;22.60;44.94;94906.53;5114526;28;20440;-84
2021/05/29 08:51:43;;;;;;;2.80;2.50;;;;;;;22.61;45.42;94910.03;5114909;28;20473;-83
2021/05/29 08:54:11;;;;;;;2.53;2.33;;;;;;;22.75;45.31;94904.47;5114225;28;20837;-84
2021/05/29 08:56:37;;;;;;;3.33;2.20;;;;;;;22.85;46.27;94902.25;5114327;28;20437;-83
2021/05/29 08:59:04;;;;;;;2.40;2.20;;;;;;;22.83;44.73;94895.44;5061887;28;20794;-84
2021/05/29 09:01:30;;;;;;;2.50;2.30;;;;;;;22.90;45.71;94900.81;5114336;28;20445;-83
2021/05/29 09:03:59;;;;;;;6.20;2.57;;;;;;;23.13;44.95;94895.84;5114118;28;20453;-84
2021/05/29 09:06:42;;;;;;;2.80;2.50;;;;;;;23.16;44.52;94901.63;5114401;28;20458;-84
2021/05/29 09:09:11;;;;;;;3.40;2.40;;;;;;;23.24;42.14;94903.28;5051030;28;20446;-83
2021/05/29 09:11:43;;;;;;;3.30;2.80;;;;;;;23.38;44.30;94899.53;5051133;28;21018;-84
2021/05/29 09:14:38;;;;;;;2.80;2.60;;;;;;;23.30;43.87;94896.25;5051241;28;20961;-84
2021/05/29 09:17:10;;;;;;;2.57;2.37;;;;;;;23.49;44.24;94890.88;5050482;28;20456;-82
2021/05/29 09:19:59;;;;;;;3.13;2.93;;;;;;;23.61;43.90;94887.56;5050766;28;20443;-82
2021/05/29 09:22:28;;;;;;;2.37;2.17;;;;;;;23.78;43.43;94875.38;5018201;28;20449;-83
2021/05/29 09:25:14;;;;;;;3.27;2.37;;;;;;;23.88;44.21;94878.41;5050998;28;20564;-82
2021/05/29 09:27:53;;;;;;;3.93;2.60;;;;;;;23.90;43.40;94873.66;4991636;28;20506;-84
2021/05/29 09:30:44;;;;;;;2.57;2.37;;;;;;;23.84;43.13;94863.78;4991346;28;20489;-83
2021/05/29 09:33:13;;;;;;;3.80;3.17;;;;;;;23.71;44.72;94869.22;4991124;28;20463;-83
2021/05/29 09:35:39;;;;;;;4.13;2.30;;;;;;;23.81;42.33;94866.91;4991456;28;20462;-83
2021/05/29 09:38:07;;;;;;;3.43;2.23;;;;;;;23.76;42.08;94859.50;4958516;28;20442;-82
2021/05/29 09:40:34;;;;;;;3.00;2.80;;;;;;;23.58;42.32;94862.03;4991407;28;20449;-84
2021/05/29 09:43:04;;;;;;;3.13;2.40;;;;;;;23.38;43.35;94861.22;4943074;28;20484;-84
2021/05/29 09:45:31;;;;;;;6.77;3.00;;;;;;;23.37;44.00;94862.25;4996783;28;20972;-84
2021/05/29 09:48:16;;;;;;;2.80;2.23;;;;;;;23.28;41.42;94867.00;5030609;28;20443;-84
2021/05/29 09:51:00;;;;;;;2.67;2.47;;;;;;;23.23;45.98;94866.00;4997336;28;20442;-84
2021/05/29 09:53:27;;;;;;;4.90;2.30;;;;;;;23.25;43.52;94867.44;5030458;28;20532;-83
2021/05/29 09:55:55;;;;;;;2.17;2.07;;;;;;;23.39;44.60;94852.97;5030421;28;20563;-83
2021/05/29 09:58:42;;;;;;;5.63;2.77;;;;;;;23.34;42.06;94850.09;5030316;28;20957;-84
2021/05/29 10:01:08;;;;;;;4.33;2.30;;;;;;;23.35;42.78;94854.41;5030061;28;20436;-83
2021/05/29 10:03:47;;;;;;;2.70;2.50;;;;;;;23.22;41.52;94838.41;5030212;28;20899;-83
2021/05/29 10:06:14;;;;;;;2.63;2.27;;;;;;;23.01;42.57;94852.84;5112606;28;20486;-84
2021/05/29 10:08:42;;;;;;;3.57;2.20;;;;;;;23.02;42.37;94848.31;5113087;28;20448;-83
2021/05/29 10:11:09;;;;;;;4.83;2.53;;;;;;;23.12;44.34;94840.66;5112749;28;20498;-83
2021/05/29 10:13:39;;;;;;;2.23;2.03;;;;;;;23.20;42.02;94836.97;5112840;28;20519;-83
2021/05/29 10:16:05;;;;;;;6.73;2.60;;;;;;;23.07;44.04;94843.16;5112974;28;20440;-84
2021/05/29 10:18:34;;;;;;;2.40;2.20;;;;;;;23.14;44.62;94838.63;5112989;28;20434;-83
2021/05/29 10:21:01;;;;;;;3.67;2.10;;;;;;;23.06;42.58;94828.94;5113013;28;20487;-84
2021/05/29 10:23:28;;;;;;;2.60;2.40;;;;;;;23.06;42.63;94826.25;5112764;28;20880;-83
2021/05/29 10:25:59;;;;;;;2.97;2.40;;;;;;;23.07;42.33;94833.25;5112634;28;21001;-83
2021/05/29 10:28:26;;;;;;;2.60;2.30;;;;;;;23.15;42.55;94829.56;5112678;28;20442;-83
2021/05/29 10:30:53;;;;;;;2.90;2.30;;;;;;;23.23;41.47;94828.50;5112444;28;20461;-82
2021/05/29 10:33:20;;;;;;;2.90;2.70;;;;;;;23.19;42.60;94833.47;5076698;28;20482;-83
2021/05/29 10:35:47;;;;;;;2.43;2.23;;;;;;;23.08;41.61;94837.59;5112523;28;20448;-85
2021/05/29 10:38:14;;;;;;;2.57;2.37;;;;;;;23.10;42.57;94827.50;5076572;28;20943;-82
2021/05/29 10:40:42;;;;;;;3.53;2.10;;;;;;;23.26;42.46;94831.59;5076510;28;20920;-83
2021/05/29 10:43:14;;;;;;;2.40;2.30;;;;;;;23.36;41.54;94823.94;5060057;28;20461;-84
2021/05/29 10:46:09;;;;;;;6.93;2.07;;;;;;;23.28;40.26;94832.19;5112485;28;20559;-84
2021/05/29 10:48:48;;;;;;;3.80;2.40;;;;;;;23.27;41.27;94832.41;5112287;28;20445;-82
2021/05/29 10:51:16;;;;;;;9.70;2.40;;;;;;;23.27;40.17;94832.41;5112510;28;20883;-83
2021/05/29 10:53:48;;;;;;;2.30;2.10;;;;;;;23.26;41.54;94828.91;5112209;28;20529;-83
2021/05/29 10:56:26;;;;;;;3.40;2.73;;;;;;;23.31;42.79;94830.94;5112833;28;20479;-83
2021/05/29 10:59:10;;;;;;;3.00;2.20;;;;;;;23.29;40.74;94831.16;5112175;28;20806;-82
2021/05/29 11:02:08;;;;;;;3.33;2.20;;;;;;;23.42;42.14;94831.16;5112110;28;20527;-83
2021/05/29 11:04:35;;;;;;;2.23;2.03;;;;;;;23.62;42.85;94822.22;5112077;28;20491;-85
2021/05/29 11:07:26;;;;;;;5.70;2.70;;;;;;;23.45;40.99;94822.69;5112109;28;20478;-83
2021/05/29 11:09:56;;;;;;;4.43;2.30;;;;;;;23.35;39.88;94824.97;5112673;28;20443;-83
2021/05/29 11:12:47;;;;;;;2.90;2.70;;;;;;;23.25;40.73;94819.22;5112560;28;20441;-83
2021/05/29 11:15:14;;;;;;;6.67;2.50;;;;;;;23.25;41.16;94829.13;5112096;28;20442;-82
2021/05/29 11:18:08;;;;;;;2.40;2.20;;;;;;;23.11;41.77;94822.97;5112269;28;20451;-83
2021/05/29 11:21:02;;;;;;;2.10;2.00;;;;;;;23.11;40.80;94817.59;5112480;28;20438;-83
2021/05/29 11:23:28;;;;;;;2.33;2.10;;;;;;;23.10;39.74;94815.97;5111893;28;20941;-82
2021/05/29 11:25:55;;;;;;;2.30;2.10;;;;;;;23.15;39.30;94814.31;5111980;28;20485;-82
2021/05/29 11:28:22;;;;;;;3.63;2.00;;;;;;;23.39;40.24;94815.47;5111873;28;20455;-82
2021/05/29 11:30:48;;;;;;;3.27;2.53;;;;;;;23.59;40.06;94814.63;5111865;28;20496;-83
2021/05/29 11:33:16;;;;;;;4.40;2.40;;;;;;;23.79;39.65;94810.84;5112012;28;20909;-83
2021/05/29 11:35:45;;;;;;;2.70;2.50;;;;;;;23.92;40.47;94801.88;5112237;28;20785;-84
2021/05/29 11:38:16;;;;;;;4.07;2.27;;;;;;;23.88;39.58;94799.84;5112146;28;20450;-84
2021/05/29 11:40:47;;;;;;;2.47;2.27;;;;;;;23.66;39.51;94810.06;5061307;28;20497;-83
2021/05/29 11:43:15;;;;;;;6.23;2.67;;;;;;;23.13;39.35;94799.47;5115874;28;20447;-83
2021/05/29 11:45:42;;;;;;;3.10;2.30;;;;;;;22.92;39.98;94811.28;5115697;28;20570;-85
2021/05/29 11:48:09;;;;;;;2.53;2.23;;;;;;;22.92;40.92;94805.09;5115958;28;20502;-84
2021/05/29 11:50:40;;;;;;;10.10;2.77;;;;;;;23.01;41.98;94801.97;5115803;28;20961;-83
2021/05/29 11:53:09;;;;;;;5.67;2.60;;;;;;;23.06;40.50;94804.84;5115563;28;20457;-82
2021/05/29 11:56:03;;;;;;;2.20;2.10;;;;;;;23.34;39.45;94793.88;5115832;28;20485;-83
2021/05/29 11:58:40;;;;;;;6.00;2.40;;;;;;;23.51;39.54;94783.50;5032390;28;20445;-83
2021/05/29 12:01:07;;;;;;;3.67;2.00;;;;;;;23.74;40.22;94785.72;4983526;28;20837;-82
2021/05/29 12:03:40;;;;;;;3.60;2.40;;;;;;;23.84;40.90;94775.34;5032562;28;20450;-83
2021/05/29 12:06:09;;;;;;;2.70;2.20;;;;;;;23.80;39.54;94771.47;5032248;28;20546;-83
2021/05/29 12:08:57;;;;;;;2.90;2.40;;;;;;;23.75;40.55;94777.47;5032274;28;20439;-83
2021/05/29 12:11:25;;;;;;;4.10;2.00;;;;;;;23.77;38.92;94782.59;5032399;28;20845;-83